CheckWX is a tool to help pilots better visualize weather data.  It is not intended as a substitute for an official pre-flight weather briefing.

16:38:06 UTC

KPVU METAR
Provo Municipal Airport
Provo, Utah, USA
Current

42 mins ago

KPVU 071556Z 14006KT 10SM FEW070 SCT095 13/01 A3012 RMK AO2 SLP176 T01280006
Observed
Apr-7 @ 15:56 UTC
Wind
  • 140° at 6 KTS
Visibility
Flight Rules
VFR
Cloud Levels
  • Few at 7,000' AGL
  • Scattered at 9,500' AGL
Temperature
13°C / 55°F
Dewpoint
C / 34°F
Humidity
44%
Altimeter
30.12" Hg
Pressure
1020.02 hPa
Previous

2 hours ago

KPVU 071456Z 15007KT 10SM FEW070 SCT095 10/01 A3011 RMK AO2 SLP178 T01000011 53016
Observed
Apr-7 @ 14:56 UTC
Wind
  • 150° at 7 KTS
Visibility
Flight Rules
VFR
Cloud Levels
  • Few at 7,000' AGL
  • Scattered at 9,500' AGL
Temperature
10°C / 50°F
Dewpoint
C / 34°F
Humidity
54%
Altimeter
30.11" Hg
Pressure
1019.62 hPa
Previous

3 hours ago

KPVU 071356Z 12007KT 10SM SCT070 08/01 A3010 RMK AO2 SLP176 T00780011
Observed
Apr-7 @ 13:56 UTC
Wind
  • 120° at 7 KTS
Visibility
Flight Rules
VFR
Cloud Levels
  • Scattered at 7,000' AGL
Temperature
C / 46°F
Dewpoint
C / 34°F
Humidity
62%
Altimeter
30.1" Hg
Pressure
1019.32 hPa